Tuesday, August 21, 2018, 9:54 AM EDT
Back to Local

KGED, Georgetown Sussex Co Airport

Location: Georgetown, DE, United States Lat: 38.683
Local Time: 9:54 AM EDT (13:54 GMT) Lon: -75.367
Time Zone: US/Eastern Elev: 52 ft

Show me the last for .
Show Decoded

2018-08-21 08:54 METAR KGED 211254Z AUTO 13010KT 10SM OVC065 26/22 A3006 RMK AO2 SLP177 T02560222
                 =
2018-08-21 07:54 METAR KGED 211154Z AUTO 12004KT 10SM BKN060 24/22 A3006 RMK AO2 SLP178 T02390217
                 10239 20206 55002 =
2018-08-21 06:54 METAR KGED 211054Z AUTO 12004KT 10SM OVC065 22/21 A3006 RMK AO2 SLP177 T02220211
                 =
2018-08-21 05:54 METAR KGED 210954Z AUTO 10004KT 10SM OVC060 23/21 A3005 RMK AO2 SLP174 T02280211
                 =
2018-08-21 04:54 METAR KGED 210854Z AUTO 07003KT 10SM CLR 21/21 A3006 RMK AO2 SLP180 T02110206
                 58006 =
2018-08-21 04:03 METAR KGED 210803Z AUTO 06005KT 10SM SCT024 21/21 A3007 RMK AO2 T02110206 =
2018-08-21 03:54 METAR KGED 210754Z AUTO 00000KT 10SM SCT023 BKN028 22/21 A3007 RMK AO2 SLP182
                 T02220206 =
2018-08-21 03:17 METAR KGED 210717Z AUTO 00000KT 10SM BKN020 22/21 A3008 RMK AO2 T02220211 =
2018-08-21 02:54 METAR KGED 210654Z AUTO 08003KT 10SM FEW020 22/21 A3008 RMK AO2 SLP185 T02220211
                 =
2018-08-21 00:54 METAR KGED 210454Z AUTO 05006KT 10SM OVC050 23/21 A3011 RMK AO2 SLP194 T02280206
                 402610211 TSNO =
2018-08-20 23:54 METAR KGED 210354Z AUTO 05003KT 10SM SCT030 OVC050 23/21 A3012 RMK AO2 SLP200
                 T02280206 =
2018-08-20 22:54 METAR KGED 210254Z AUTO 05003KT 10SM OVC048 22/21 A3012 RMK AO2 SLP199 T02220206
                 51009 =
2018-08-20 21:54 METAR KGED 210154Z AUTO 04005KT 10SM FEW019 FEW025 22/20 A3012 RMK AO2 SLP198
                 T02170200 =
2018-08-20 20:54 METAR KGED 210054Z AUTO 06007KT 10SM CLR 22/20 A3010 RMK AO2 SLP193 T02220200 =
2018-08-20 19:54 METAR KGED 202354Z AUTO 08008KT 10SM FEW018 23/20 A3009 RMK AO2 SLP189 T02280200
                 10256 20228 53001 =
2018-08-20 19:47 METAR KGED 202347Z AUTO 07008KT 10SM SCT018 23/20 A3009 RMK AO2 T02280200 =
2018-08-20 19:24 METAR KGED 202324Z AUTO 09007KT 10SM BKN018 OVC049 23/20 A3009 RMK AO2 T02330200
                 =
2018-08-20 18:54 METAR KGED 202254Z AUTO 08007KT 10SM FEW019 BKN050 24/20 A3009 RMK AO2 SLP188
                 T02390200 =
2018-08-20 18:42 METAR KGED 202242Z AUTO 07007KT 10SM SCT019 BKN050 24/20 A3009 RMK AO2 T02390200
                 =
2018-08-20 17:54 METAR KGED 202154Z AUTO 07010KT 10SM BKN017 BKN050 24/20 A3009 RMK AO2 SLP188
                 T02440200 =
2018-08-20 17:23 METAR KGED 202123Z AUTO 07011KT 10SM SCT020 OVC047 25/20 A3008 RMK AO2 T02500200
                 =
2018-08-20 16:54 METAR KGED 202054Z AUTO 09010KT 10SM BKN020 OVC048 25/20 A3009 RMK AO2 SLP188
                 T02500200 56006 =
2018-08-20 15:54 METAR KGED 201954Z AUTO 08009KT 10SM BKN019 BKN025 OVC049 26/21 A3009 RMK AO2
                 SLP189 T02560206 =
2018-08-20 15:34 METAR KGED 201934Z AUTO 08009KT 10SM BKN019 OVC048 25/21 A3009 RMK AO2 T02500206
                 =
2018-08-20 14:54 METAR KGED 201854Z AUTO 09009KT 10SM FEW017 OVC047 25/21 A3010 RMK AO2 SLP192
                 T02500206 =
2018-08-20 14:25 METAR KGED 201825Z AUTO 09010KT 10SM FEW018 BKN033 OVC043 25/21 A3011 RMK AO2
                 T02500206 =
2018-08-20 13:54 METAR KGED 201754Z AUTO 07008KT 10SM SCT021 BKN028 OVC034 25/21 A3011 RMK AO2
                 RAE06 SLP195 P0000 60000 T02500206 10261 20228 53002 =
2018-08-20 12:54 METAR KGED 201654Z AUTO 06007KT 10SM -RA BKN018 OVC024 25/21 A3010 RMK AO2 RAB48
                 SLP191 P0000 T02500211 =
2018-08-20 11:54 METAR KGED 201554Z AUTO 04010KT 10SM SCT016 BKN025 OVC032 26/21 A3010 RMK AO2
                 SLP191 T02560211 =
2018-08-20 10:54 METAR KGED 201454Z AUTO 06009KT 10SM SCT018 BKN022 OVC033 25/21 A3010 RMK AO2
                 SLP192 T02500211 53008 =

Support USWX by starting your Amazon purchase here.